sensor_id;sensor_type;location;lat;lon;timestamp;temperature;humidity
16229;DHT22;8222;51.462;12.630;2023-02-28T00:00:20;3.00;99.90
16229;DHT22;8222;51.462;12.630;2023-02-28T00:02:46;3.10;99.90
16229;DHT22;8222;51.462;12.630;2023-02-28T00:05:14;2.90;99.90
16229;DHT22;8222;51.462;12.630;2023-02-28T00:07:40;2.90;99.90
16229;DHT22;8222;51.462;12.630;2023-02-28T00:10:09;3.00;99.90
16229;DHT22;8222;51.462;12.630;2023-02-28T00:12:35;2.90;99.90
16229;DHT22;8222;51.462;12.630;2023-02-28T00:15:08;2.90;99.90
16229;DHT22;8222;51.462;12.630;2023-02-28T00:17:34;2.90;99.90
16229;DHT22;8222;51.462;12.630;2023-02-28T00:20:00;3.00;99.90
16229;DHT22;8222;51.462;12.630;2023-02-28T00:22:42;2.90;99.90
16229;DHT22;8222;51.462;12.630;2023-02-28T00:25:10;2.90;99.90
16229;DHT22;8222;51.462;12.630;2023-02-28T00:27:37;2.90;99.90
16229;DHT22;8222;51.462;12.630;2023-02-28T00:30:04;3.00;99.90
16229;DHT22;8222;51.462;12.630;2023-02-28T00:32:30;2.80;99.90
16229;DHT22;8222;51.462;12.630;2023-02-28T00:34:56;2.60;99.90
16229;DHT22;8222;51.462;12.630;2023-02-28T00:37:22;2.60;99.90
16229;DHT22;8222;51.462;12.630;2023-02-28T00:39:48;2.60;99.90
16229;DHT22;8222;51.462;12.630;2023-02-28T00:42:15;2.80;99.90
16229;DHT22;8222;51.462;12.630;2023-02-28T00:44:41;3.20;99.90
16229;DHT22;8222;51.462;12.630;2023-02-28T00:47:07;3.20;99.90
16229;DHT22;8222;51.462;12.630;2023-02-28T00:49:33;2.80;99.90
16229;DHT22;8222;51.462;12.630;2023-02-28T00:52:00;2.80;99.90
16229;DHT22;8222;51.462;12.630;2023-02-28T00:54:26;2.80;99.90
16229;DHT22;8222;51.462;12.630;2023-02-28T00:56:51;2.90;99.90
16229;DHT22;8222;51.462;12.630;2023-02-28T00:59:18;2.90;99.90
16229;DHT22;8222;51.462;12.630;2023-02-28T01:01:46;2.80;99.90
16229;DHT22;8222;51.462;12.630;2023-02-28T01:04:13;2.80;99.90
16229;DHT22;8222;51.462;12.630;2023-02-28T01:06:39;2.60;99.90
16229;DHT22;8222;51.462;12.630;2023-02-28T01:09:05;2.70;99.90
16229;DHT22;8222;51.462;12.630;2023-02-28T01:11:31;2.60;99.90
16229;DHT22;8222;51.462;12.630;2023-02-28T01:13:58;3.30;99.90
16229;DHT22;8222;51.462;12.630;2023-02-28T01:16:23;2.40;99.90
16229;DHT22;8222;51.462;12.630;2023-02-28T01:18:49;2.90;99.90
16229;DHT22;8222;51.462;12.630;2023-02-28T01:21:19;2.70;99.90
16229;DHT22;8222;51.462;12.630;2023-02-28T01:23:46;2.60;99.90
16229;DHT22;8222;51.462;12.630;2023-02-28T01:26:14;2.60;99.90
16229;DHT22;8222;51.462;12.630;2023-02-28T01:28:41;2.60;99.90
16229;DHT22;8222;51.462;12.630;2023-02-28T01:31:08;2.70;99.90
16229;DHT22;8222;51.462;12.630;2023-02-28T01:33:34;2.70;99.90
16229;DHT22;8222;51.462;12.630;2023-02-28T01:38:30;2.60;99.90
16229;DHT22;8222;51.462;12.630;2023-02-28T01:40:56;2.50;99.90
16229;DHT22;8222;51.462;12.630;2023-02-28T01:43:30;3.10;99.90
16229;DHT22;8222;51.462;12.630;2023-02-28T01:45:57;2.50;99.90
16229;DHT22;8222;51.462;12.630;2023-02-28T01:48:34;2.60;99.90
16229;DHT22;8222;51.462;12.630;2023-02-28T01:51:11;2.60;99.90
16229;DHT22;8222;51.462;12.630;2023-02-28T01:53:43;2.60;99.90
16229;DHT22;8222;51.462;12.630;2023-02-28T01:56:12;2.70;99.90
16229;DHT22;8222;51.462;12.630;2023-02-28T01:58:38;3.60;99.90
16229;DHT22;8222;51.462;12.630;2023-02-28T02:01:04;2.60;99.90
16229;DHT22;8222;51.462;12.630;2023-02-28T02:03:31;2.70;99.90
16229;DHT22;8222;51.462;12.630;2023-02-28T02:05:57;2.80;99.90
16229;DHT22;8222;51.462;12.630;2023-02-28T02:08:25;2.80;99.90
16229;DHT22;8222;51.462;12.630;2023-02-28T02:10:56;3.20;99.90
16229;DHT22;8222;51.462;12.630;2023-02-28T02:17:05;2.80;99.90
16229;DHT22;8222;51.462;12.630;2023-02-28T02:40:05;2.90;99.90
16229;DHT22;8222;51.462;12.630;2023-02-28T02:42:52;2.90;99.90
16229;DHT22;8222;51.462;12.630;2023-02-28T02:45:39;2.80;99.90
16229;DHT22;8222;51.462;12.630;2023-02-28T02:48:11;2.60;99.90
16229;DHT22;8222;51.462;12.630;2023-02-28T02:50:43;2.50;99.90
16229;DHT22;8222;51.462;12.630;2023-02-28T02:53:12;2.40;99.90
16229;DHT22;8222;51.462;12.630;2023-02-28T02:55:41;2.20;99.90
16229;DHT22;8222;51.462;12.630;2023-02-28T02:58:13;2.30;99.90
16229;DHT22;8222;51.462;12.630;2023-02-28T03:00:43;2.20;99.90
16229;DHT22;8222;51.462;12.630;2023-02-28T03:03:12;2.20;99.90
16229;DHT22;8222;51.462;12.630;2023-02-28T03:05:46;2.20;99.90
16229;DHT22;8222;51.462;12.630;2023-02-28T03:08:11;2.20;99.90
16229;DHT22;8222;51.462;12.630;2023-02-28T03:10:42;1.90;99.90
16229;DHT22;8222;51.462;12.630;2023-02-28T03:21:43;1.50;99.90
16229;DHT22;8222;51.462;12.630;2023-02-28T03:26:59;1.40;99.90
16229;DHT22;8222;51.462;12.630;2023-02-28T03:29:37;1.40;99.90
16229;DHT22;8222;51.462;12.630;2023-02-28T03:34:39;1.30;99.90
16229;DHT22;8222;51.462;12.630;2023-02-28T03:37:11;1.30;99.90
16229;DHT22;8222;51.462;12.630;2023-02-28T03:40:34;1.30;99.90
16229;DHT22;8222;51.462;12.630;2023-02-28T03:42:58;1.40;99.90
16229;DHT22;8222;51.462;12.630;2023-02-28T03:45:30;1.30;99.90
16229;DHT22;8222;51.462;12.630;2023-02-28T03:48:34;1.30;99.90
16229;DHT22;8222;51.462;12.630;2023-02-28T03:50:54;1.40;99.90
16229;DHT22;8222;51.462;12.630;2023-02-28T03:53:45;1.40;99.90
16229;DHT22;8222;51.462;12.630;2023-02-28T03:56:17;1.30;99.90
16229;DHT22;8222;51.462;12.630;2023-02-28T03:58:56;1.40;99.90
16229;DHT22;8222;51.462;12.630;2023-02-28T04:03:52;1.40;99.90
16229;DHT22;8222;51.462;12.630;2023-02-28T04:06:20;1.20;99.90
16229;DHT22;8222;51.462;12.630;2023-02-28T04:08:46;1.00;99.90
16229;DHT22;8222;51.462;12.630;2023-02-28T04:11:42;1.00;99.90
16229;DHT22;8222;51.462;12.630;2023-02-28T04:14:09;1.00;99.90
16229;DHT22;8222;51.462;12.630;2023-02-28T04:16:38;1.30;99.90
16229;DHT22;8222;51.462;12.630;2023-02-28T04:19:05;1.10;99.90
16229;DHT22;8222;51.462;12.630;2023-02-28T04:21:33;1.20;99.90
16229;DHT22;8222;51.462;12.630;2023-02-28T04:23:59;1.20;99.90
16229;DHT22;8222;51.462;12.630;2023-02-28T04:26:36;1.00;99.90
16229;DHT22;8222;51.462;12.630;2023-02-28T04:29:04;1.00;99.90
16229;DHT22;8222;51.462;12.630;2023-02-28T04:31:30;0.90;99.90
16229;DHT22;8222;51.462;12.630;2023-02-28T04:33:55;0.90;99.90
16229;DHT22;8222;51.462;12.630;2023-02-28T04:36:21;0.80;99.90
16229;DHT22;8222;51.462;12.630;2023-02-28T04:38:50;0.80;99.90
16229;DHT22;8222;51.462;12.630;2023-02-28T04:41:16;0.70;99.90
16229;DHT22;8222;51.462;12.630;2023-02-28T04:43:42;0.70;99.90
16229;DHT22;8222;51.462;12.630;2023-02-28T04:46:08;0.80;99.90
16229;DHT22;8222;51.462;12.630;2023-02-28T04:48:36;0.60;99.90
16229;DHT22;8222;51.462;12.630;2023-02-28T04:51:05;0.70;99.90
16229;DHT22;8222;51.462;12.630;2023-02-28T04:53:32;0.70;99.90
16229;DHT22;8222;51.462;12.630;2023-02-28T04:55:58;0.70;99.90
16229;DHT22;8222;51.462;12.630;2023-02-28T04:58:24;0.60;99.90
16229;DHT22;8222;51.462;12.630;2023-02-28T05:00:53;0.50;99.90
16229;DHT22;8222;51.462;12.630;2023-02-28T05:03:21;0.40;99.90
16229;DHT22;8222;51.462;12.630;2023-02-28T05:05:48;0.50;99.90
16229;DHT22;8222;51.462;12.630;2023-02-28T05:08:15;0.60;99.90
16229;DHT22;8222;51.462;12.630;2023-02-28T05:10:41;0.50;99.90
16229;DHT22;8222;51.462;12.630;2023-02-28T05:13:06;0.40;99.90
16229;DHT22;8222;51.462;12.630;2023-02-28T05:15:32;0.50;99.90
16229;DHT22;8222;51.462;12.630;2023-02-28T05:17:57;1.30;99.90
16229;DHT22;8222;51.462;12.630;2023-02-28T05:20:23;0.50;99.90
16229;DHT22;8222;51.462;12.630;2023-02-28T05:22:51;0.40;99.90
16229;DHT22;8222;51.462;12.630;2023-02-28T05:25:19;0.60;99.90
16229;DHT22;8222;51.462;12.630;2023-02-28T05:27:48;0.60;99.90
16229;DHT22;8222;51.462;12.630;2023-02-28T05:30:14;0.50;99.90
16229;DHT22;8222;51.462;12.630;2023-02-28T05:32:41;0.40;99.90
16229;DHT22;8222;51.462;12.630;2023-02-28T05:35:14;0.40;99.90
16229;DHT22;8222;51.462;12.630;2023-02-28T05:37:39;0.30;99.90
16229;DHT22;8222;51.462;12.630;2023-02-28T05:40:06;0.70;99.90
16229;DHT22;8222;51.462;12.630;2023-02-28T05:42:32;0.30;99.90
16229;DHT22;8222;51.462;12.630;2023-02-28T05:45:00;0.60;99.90
16229;DHT22;8222;51.462;12.630;2023-02-28T05:47:26;0.20;99.90
16229;DHT22;8222;51.462;12.630;2023-02-28T05:49:51;0.20;99.90
16229;DHT22;8222;51.462;12.630;2023-02-28T05:52:17;1.20;99.90
16229;DHT22;8222;51.462;12.630;2023-02-28T05:54:43;0.30;99.90
16229;DHT22;8222;51.462;12.630;2023-02-28T05:57:08;0.30;99.90
16229;DHT22;8222;51.462;12.630;2023-02-28T05:59:36;0.20;99.90
16229;DHT22;8222;51.462;12.630;2023-02-28T06:02:05;0.30;99.90
16229;DHT22;8222;51.462;12.630;2023-02-28T06:04:31;0.30;99.90
16229;DHT22;8222;51.462;12.630;2023-02-28T06:06:59;0.20;99.90
16229;DHT22;8222;51.462;12.630;2023-02-28T06:09:25;0.20;99.90
16229;DHT22;8222;51.462;12.630;2023-02-28T06:11:50;0.30;99.90
16229;DHT22;8222;51.462;12.630;2023-02-28T06:14:18;0.40;99.90
16229;DHT22;8222;51.462;12.630;2023-02-28T06:16:44;0.30;99.90
16229;DHT22;8222;51.462;12.630;2023-02-28T06:19:10;0.40;99.90
16229;DHT22;8222;51.462;12.630;2023-02-28T06:21:36;1.20;99.90
16229;DHT22;8222;51.462;12.630;2023-02-28T06:24:02;0.50;99.90
16229;DHT22;8222;51.462;12.630;2023-02-28T06:26:30;0.40;99.90
16229;DHT22;8222;51.462;12.630;2023-02-28T06:29:08;0.40;99.90
16229;DHT22;8222;51.462;12.630;2023-02-28T06:35:04;0.60;99.90
16229;DHT22;8222;51.462;12.630;2023-02-28T06:37:31;0.60;99.90
16229;DHT22;8222;51.462;12.630;2023-02-28T06:39:57;0.60;99.90
16229;DHT22;8222;51.462;12.630;2023-02-28T06:42:24;0.50;99.90
16229;DHT22;8222;51.462;12.630;2023-02-28T06:44:57;0.60;99.90
16229;DHT22;8222;51.462;12.630;2023-02-28T06:47:23;0.70;99.90
16229;DHT22;8222;51.462;12.630;2023-02-28T06:49:49;0.90;99.90
16229;DHT22;8222;51.462;12.630;2023-02-28T06:52:15;1.10;99.90
16229;DHT22;8222;51.462;12.630;2023-02-28T06:54:41;1.10;99.90
16229;DHT22;8222;51.462;12.630;2023-02-28T06:57:07;1.20;99.90
16229;DHT22;8222;51.462;12.630;2023-02-28T06:59:34;1.30;99.90
16229;DHT22;8222;51.462;12.630;2023-02-28T07:02:01;1.50;99.90
16229;DHT22;8222;51.462;12.630;2023-02-28T07:04:27;1.40;99.90
16229;DHT22;8222;51.462;12.630;2023-02-28T07:06:54;1.40;99.90
16229;DHT22;8222;51.462;12.630;2023-02-28T07:09:22;1.50;99.90
16229;DHT22;8222;51.462;12.630;2023-02-28T07:11:50;1.70;99.90
16229;DHT22;8222;51.462;12.630;2023-02-28T07:14:15;1.90;99.90
16229;DHT22;8222;51.462;12.630;2023-02-28T07:16:42;2.00;99.90
16229;DHT22;8222;51.462;12.630;2023-02-28T07:19:07;2.10;99.90
16229;DHT22;8222;51.462;12.630;2023-02-28T07:21:35;2.20;99.90
16229;DHT22;8222;51.462;12.630;2023-02-28T07:24:00;2.30;99.90
16229;DHT22;8222;51.462;12.630;2023-02-28T07:26:26;2.20;99.90
16229;DHT22;8222;51.462;12.630;2023-02-28T07:28:53;2.10;99.90
16229;DHT22;8222;51.462;12.630;2023-02-28T07:31:19;2.20;99.90
16229;DHT22;8222;51.462;12.630;2023-02-28T07:33:45;2.30;99.90
16229;DHT22;8222;51.462;12.630;2023-02-28T07:36:13;2.50;99.90
16229;DHT22;8222;51.462;12.630;2023-02-28T07:38:41;2.50;99.90
16229;DHT22;8222;51.462;12.630;2023-02-28T07:41:08;3.30;99.90
16229;DHT22;8222;51.462;12.630;2023-02-28T07:43:36;2.70;99.90
16229;DHT22;8222;51.462;12.630;2023-02-28T07:46:07;2.80;99.90
16229;DHT22;8222;51.462;12.630;2023-02-28T07:48:33;2.80;99.90
16229;DHT22;8222;51.462;12.630;2023-02-28T07:50:59;2.80;99.90
16229;DHT22;8222;51.462;12.630;2023-02-28T07:53:26;2.90;99.90
16229;DHT22;8222;51.462;12.630;2023-02-28T07:56:00;2.90;99.90
16229;DHT22;8222;51.462;12.630;2023-02-28T07:58:27;3.10;99.90
16229;DHT22;8222;51.462;12.630;2023-02-28T08:00:52;3.20;99.90
16229;DHT22;8222;51.462;12.630;2023-02-28T08:03:21;3.20;99.90
16229;DHT22;8222;51.462;12.630;2023-02-28T08:05:48;3.20;99.90
16229;DHT22;8222;51.462;12.630;2023-02-28T08:08:15;3.40;99.90
16229;DHT22;8222;51.462;12.630;2023-02-28T08:10:41;3.30;99.90
16229;DHT22;8222;51.462;12.630;2023-02-28T08:13:09;3.40;99.90
16229;DHT22;8222;51.462;12.630;2023-02-28T08:15:35;3.40;99.90
16229;DHT22;8222;51.462;12.630;2023-02-28T08:18:01;3.40;99.90
16229;DHT22;8222;51.462;12.630;2023-02-28T08:20:27;3.40;99.90
16229;DHT22;8222;51.462;12.630;2023-02-28T08:22:53;3.40;99.90
16229;DHT22;8222;51.462;12.630;2023-02-28T08:25:19;3.50;99.90
16229;DHT22;8222;51.462;12.630;2023-02-28T08:27:46;3.60;99.90
16229;DHT22;8222;51.462;12.630;2023-02-28T08:30:13;3.80;99.90
16229;DHT22;8222;51.462;12.630;2023-02-28T08:32:40;3.70;99.90
16229;DHT22;8222;51.462;12.630;2023-02-28T08:35:08;3.80;99.90
16229;DHT22;8222;51.462;12.630;2023-02-28T08:37:34;4.10;99.90
16229;DHT22;8222;51.462;12.630;2023-02-28T08:40:00;4.40;99.90
16229;DHT22;8222;51.462;12.630;2023-02-28T08:42:26;4.40;99.90
16229;DHT22;8222;51.462;12.630;2023-02-28T08:44:52;4.60;99.90
16229;DHT22;8222;51.462;12.630;2023-02-28T08:47:19;4.60;99.90
16229;DHT22;8222;51.462;12.630;2023-02-28T08:49:45;4.80;99.90
16229;DHT22;8222;51.462;12.630;2023-02-28T08:52:11;4.90;99.90
16229;DHT22;8222;51.462;12.630;2023-02-28T08:54:37;4.80;99.90
16229;DHT22;8222;51.462;12.630;2023-02-28T08:57:03;4.60;99.90
16229;DHT22;8222;51.462;12.630;2023-02-28T08:59:29;4.60;99.90
16229;DHT22;8222;51.462;12.630;2023-02-28T09:01:54;4.80;99.90
16229;DHT22;8222;51.462;12.630;2023-02-28T09:04:20;4.80;99.90
16229;DHT22;8222;51.462;12.630;2023-02-28T09:06:46;4.70;99.90
16229;DHT22;8222;51.462;12.630;2023-02-28T09:09:14;4.80;99.90
16229;DHT22;8222;51.462;12.630;2023-02-28T09:11:39;4.80;99.90
16229;DHT22;8222;51.462;12.630;2023-02-28T09:14:05;4.90;99.90
16229;DHT22;8222;51.462;12.630;2023-02-28T09:16:32;4.90;99.90
16229;DHT22;8222;51.462;12.630;2023-02-28T09:18:57;4.90;99.90
16229;DHT22;8222;51.462;12.630;2023-02-28T09:21:25;5.00;99.90
16229;DHT22;8222;51.462;12.630;2023-02-28T09:23:51;5.30;99.90
16229;DHT22;8222;51.462;12.630;2023-02-28T09:26:21;5.30;99.90
16229;DHT22;8222;51.462;12.630;2023-02-28T09:28:48;5.00;99.90
16229;DHT22;8222;51.462;12.630;2023-02-28T09:31:17;5.30;99.90
16229;DHT22;8222;51.462;12.630;2023-02-28T09:33:46;5.30;99.90
16229;DHT22;8222;51.462;12.630;2023-02-28T09:36:14;5.40;99.90
16229;DHT22;8222;51.462;12.630;2023-02-28T09:38:39;5.50;99.90
16229;DHT22;8222;51.462;12.630;2023-02-28T09:41:17;5.60;99.90
16229;DHT22;8222;51.462;12.630;2023-02-28T09:43:49;5.60;97.30
16229;DHT22;8222;51.462;12.630;2023-02-28T09:46:38;5.60;99.90
16229;DHT22;8222;51.462;12.630;2023-02-28T09:49:22;5.50;99.90
16229;DHT22;8222;51.462;12.630;2023-02-28T09:52:02;5.70;99.30
16229;DHT22;8222;51.462;12.630;2023-02-28T09:54:30;5.80;96.40
16229;DHT22;8222;51.462;12.630;2023-02-28T10:02:18;5.90;96.40
16229;DHT22;8222;51.462;12.630;2023-02-28T10:09:51;5.80;91.90
16229;DHT22;8222;51.462;12.630;2023-02-28T10:12:18;6.00;90.60
16229;DHT22;8222;51.462;12.630;2023-02-28T10:14:47;5.80;90.30
16229;DHT22;8222;51.462;12.630;2023-02-28T10:17:18;6.00;93.10
16229;DHT22;8222;51.462;12.630;2023-02-28T10:20:06;6.30;92.10
16229;DHT22;8222;51.462;12.630;2023-02-28T10:22:42;6.60;91.90
16229;DHT22;8222;51.462;12.630;2023-02-28T10:25:21;6.60;88.00
16229;DHT22;8222;51.462;12.630;2023-02-28T10:27:47;6.70;89.80
16229;DHT22;8222;51.462;12.630;2023-02-28T10:30:13;6.80;87.90
16229;DHT22;8222;51.462;12.630;2023-02-28T10:32:40;6.40;88.70
16229;DHT22;8222;51.462;12.630;2023-02-28T10:37:37;6.40;91.40
16229;DHT22;8222;51.462;12.630;2023-02-28T10:42:58;6.30;90.60
16229;DHT22;8222;51.462;12.630;2023-02-28T10:45:29;6.30;91.20
16229;DHT22;8222;51.462;12.630;2023-02-28T10:48:22;6.50;90.90
16229;DHT22;8222;51.462;12.630;2023-02-28T10:50:51;6.40;91.70
16229;DHT22;8222;51.462;12.630;2023-02-28T10:56:20;6.40;90.40
16229;DHT22;8222;51.462;12.630;2023-02-28T11:01:22;6.60;91.20
16229;DHT22;8222;51.462;12.630;2023-02-28T11:03:49;6.60;87.40
16229;DHT22;8222;51.462;12.630;2023-02-28T11:06:23;6.90;88.50
16229;DHT22;8222;51.462;12.630;2023-02-28T11:08:56;6.90;87.50
16229;DHT22;8222;51.462;12.630;2023-02-28T11:11:26;6.80;84.90
16229;DHT22;8222;51.462;12.630;2023-02-28T11:13:56;6.80;89.80
16229;DHT22;8222;51.462;12.630;2023-02-28T11:16:32;6.80;87.40
16229;DHT22;8222;51.462;12.630;2023-02-28T11:18:59;6.50;89.20
16229;DHT22;8222;51.462;12.630;2023-02-28T11:21:36;6.90;92.30
16229;DHT22;8222;51.462;12.630;2023-02-28T11:26:46;7.10;88.90
16229;DHT22;8222;51.462;12.630;2023-02-28T11:29:30;7.20;88.00
16229;DHT22;8222;51.462;12.630;2023-02-28T11:34:35;7.30;91.70
16229;DHT22;8222;51.462;12.630;2023-02-28T11:37:02;7.30;91.50
16229;DHT22;8222;51.462;12.630;2023-02-28T11:39:31;7.40;89.20
16229;DHT22;8222;51.462;12.630;2023-02-28T11:50:47;7.40;90.20
16229;DHT22;8222;51.462;12.630;2023-02-28T12:10:41;7.10;91.70
16229;DHT22;8222;51.462;12.630;2023-02-28T12:13:21;7.10;90.50
16229;DHT22;8222;51.462;12.630;2023-02-28T12:21:46;7.00;91.40
16229;DHT22;8222;51.462;12.630;2023-02-28T12:27:02;7.10;88.70
16229;DHT22;8222;51.462;12.630;2023-02-28T12:29:34;7.00;89.00
16229;DHT22;8222;51.462;12.630;2023-02-28T12:32:16;7.20;88.80
16229;DHT22;8222;51.462;12.630;2023-02-28T12:34:49;7.10;89.30
16229;DHT22;8222;51.462;12.630;2023-02-28T12:37:22;7.00;89.10
16229;DHT22;8222;51.462;12.630;2023-02-28T12:39:56;7.10;91.00
16229;DHT22;8222;51.462;12.630;2023-02-28T12:42:36;7.40;91.20
16229;DHT22;8222;51.462;12.630;2023-02-28T12:45:05;7.30;90.00
16229;DHT22;8222;51.462;12.630;2023-02-28T12:47:34;7.20;91.10
16229;DHT22;8222;51.462;12.630;2023-02-28T12:50:07;7.50;90.60
16229;DHT22;8222;51.462;12.630;2023-02-28T12:52:59;7.30;88.30
16229;DHT22;8222;51.462;12.630;2023-02-28T12:56:01;7.10;91.90
16229;DHT22;8222;51.462;12.630;2023-02-28T12:58:25;7.10;90.00
16229;DHT22;8222;51.462;12.630;2023-02-28T13:10:24;7.30;90.10
16229;DHT22;8222;51.462;12.630;2023-02-28T13:12:52;7.40;90.90
16229;DHT22;8222;51.462;12.630;2023-02-28T13:15:23;7.50;90.20
16229;DHT22;8222;51.462;12.630;2023-02-28T13:17:54;7.40;89.50
16229;DHT22;8222;51.462;12.630;2023-02-28T13:22:51;7.20;90.10
16229;DHT22;8222;51.462;12.630;2023-02-28T13:28:03;7.50;90.90
16229;DHT22;8222;51.462;12.630;2023-02-28T13:33:32;7.40;90.00
16229;DHT22;8222;51.462;12.630;2023-02-28T13:36:22;7.30;90.40
16229;DHT22;8222;51.462;12.630;2023-02-28T13:38:55;7.40;89.50
16229;DHT22;8222;51.462;12.630;2023-02-28T13:52:16;7.70;91.70
16229;DHT22;8222;51.462;12.630;2023-02-28T13:55:15;7.80;92.40
16229;DHT22;8222;51.462;12.630;2023-02-28T14:06:34;7.00;92.10
16229;DHT22;8222;51.462;12.630;2023-02-28T14:11:39;7.00;92.70
16229;DHT22;8222;51.462;12.630;2023-02-28T14:14:08;7.00;91.90
16229;DHT22;8222;51.462;12.630;2023-02-28T14:16:46;7.00;93.30
16229;DHT22;8222;51.462;12.630;2023-02-28T14:19:30;7.00;93.20
16229;DHT22;8222;51.462;12.630;2023-02-28T14:22:00;7.10;95.00
16229;DHT22;8222;51.462;12.630;2023-02-28T14:36:06;7.40;93.90
16229;DHT22;8222;51.462;12.630;2023-02-28T14:38:38;7.40;93.50
16229;DHT22;8222;51.462;12.630;2023-02-28T14:46:41;7.30;95.70
16229;DHT22;8222;51.462;12.630;2023-02-28T14:49:16;7.10;93.50
16229;DHT22;8222;51.462;12.630;2023-02-28T14:51:42;7.10;94.70
16229;DHT22;8222;51.462;12.630;2023-02-28T14:54:17;7.20;95.60
16229;DHT22;8222;51.462;12.630;2023-02-28T14:56:48;7.20;95.50
16229;DHT22;8222;51.462;12.630;2023-02-28T14:59:35;7.20;96.60
16229;DHT22;8222;51.462;12.630;2023-02-28T15:02:21;7.20;94.50
16229;DHT22;8222;51.462;12.630;2023-02-28T15:05:10;7.20;95.20
16229;DHT22;8222;51.462;12.630;2023-02-28T15:07:43;7.10;94.80
16229;DHT22;8222;51.462;12.630;2023-02-28T15:10:29;7.10;96.00
16229;DHT22;8222;51.462;12.630;2023-02-28T15:13:05;7.00;95.80
16229;DHT22;8222;51.462;12.630;2023-02-28T15:15:48;7.00;96.50
16229;DHT22;8222;51.462;12.630;2023-02-28T15:20:53;7.00;96.60
16229;DHT22;8222;51.462;12.630;2023-02-28T15:23:21;6.80;96.90
16229;DHT22;8222;51.462;12.630;2023-02-28T15:25:47;6.80;98.00
16229;DHT22;8222;51.462;12.630;2023-02-28T15:28:16;6.70;98.10
16229;DHT22;8222;51.462;12.630;2023-02-28T15:31:01;6.50;99.90
16229;DHT22;8222;51.462;12.630;2023-02-28T15:33:29;6.50;98.80
16229;DHT22;8222;51.462;12.630;2023-02-28T15:36:26;6.50;99.20
16229;DHT22;8222;51.462;12.630;2023-02-28T15:38:53;6.40;99.90
16229;DHT22;8222;51.462;12.630;2023-02-28T15:41:28;6.40;99.90
16229;DHT22;8222;51.462;12.630;2023-02-28T15:44:33;7.20;99.90
16229;DHT22;8222;51.462;12.630;2023-02-28T15:47:20;6.50;99.90
16229;DHT22;8222;51.462;12.630;2023-02-28T15:49:50;6.50;99.90
16229;DHT22;8222;51.462;12.630;2023-02-28T15:52:19;6.50;99.90
16229;DHT22;8222;51.462;12.630;2023-02-28T15:54:47;6.40;99.90
16229;DHT22;8222;51.462;12.630;2023-02-28T15:57:22;6.20;99.90
16229;DHT22;8222;51.462;12.630;2023-02-28T15:59:55;6.20;99.90
16229;DHT22;8222;51.462;12.630;2023-02-28T16:02:32;6.30;99.90
16229;DHT22;8222;51.462;12.630;2023-02-28T16:07:38;6.60;99.90
16229;DHT22;8222;51.462;12.630;2023-02-28T16:10:06;6.00;99.90
16229;DHT22;8222;51.462;12.630;2023-02-28T16:12:34;6.00;99.90
16229;DHT22;8222;51.462;12.630;2023-02-28T16:15:06;5.90;99.90
16229;DHT22;8222;51.462;12.630;2023-02-28T16:17:38;5.90;99.90
16229;DHT22;8222;51.462;12.630;2023-02-28T16:20:22;5.90;99.90
16229;DHT22;8222;51.462;12.630;2023-02-28T16:22:48;5.80;99.90
16229;DHT22;8222;51.462;12.630;2023-02-28T16:25:15;5.80;99.90
16229;DHT22;8222;51.462;12.630;2023-02-28T16:27:43;5.80;99.90
16229;DHT22;8222;51.462;12.630;2023-02-28T16:30:25;5.80;99.90
16229;DHT22;8222;51.462;12.630;2023-02-28T16:32:52;5.70;99.90
16229;DHT22;8222;51.462;12.630;2023-02-28T16:35:19;5.70;99.90
16229;DHT22;8222;51.462;12.630;2023-02-28T16:37:45;5.50;99.90
16229;DHT22;8222;51.462;12.630;2023-02-28T16:40:21;5.50;99.90
16229;DHT22;8222;51.462;12.630;2023-02-28T16:42:48;5.40;99.90
16229;DHT22;8222;51.462;12.630;2023-02-28T16:45:23;5.20;99.90
16229;DHT22;8222;51.462;12.630;2023-02-28T16:47:49;5.10;99.90
16229;DHT22;8222;51.462;12.630;2023-02-28T16:50:23;5.20;99.90
16229;DHT22;8222;51.462;12.630;2023-02-28T16:52:49;5.20;99.90
16229;DHT22;8222;51.462;12.630;2023-02-28T16:55:18;5.20;99.90
16229;DHT22;8222;51.462;12.630;2023-02-28T16:57:44;5.20;99.90
16229;DHT22;8222;51.462;12.630;2023-02-28T17:00:13;5.20;99.90
16229;DHT22;8222;51.462;12.630;2023-02-28T17:02:39;5.20;99.90
16229;DHT22;8222;51.462;12.630;2023-02-28T17:05:05;5.20;99.90
16229;DHT22;8222;51.462;12.630;2023-02-28T17:07:31;5.00;99.90
16229;DHT22;8222;51.462;12.630;2023-02-28T17:09:59;5.00;99.90
16229;DHT22;8222;51.462;12.630;2023-02-28T17:12:33;5.00;99.90
16229;DHT22;8222;51.462;12.630;2023-02-28T17:14:59;4.80;99.90
16229;DHT22;8222;51.462;12.630;2023-02-28T17:17:25;4.60;99.90
16229;DHT22;8222;51.462;12.630;2023-02-28T17:19:51;5.90;99.90
16229;DHT22;8222;51.462;12.630;2023-02-28T17:22:16;5.10;99.90
16229;DHT22;8222;51.462;12.630;2023-02-28T17:24:42;4.40;99.90
16229;DHT22;8222;51.462;12.630;2023-02-28T17:27:11;4.40;99.90
16229;DHT22;8222;51.462;12.630;2023-02-28T17:29:39;4.30;99.90
16229;DHT22;8222;51.462;12.630;2023-02-28T17:32:04;4.20;99.90
16229;DHT22;8222;51.462;12.630;2023-02-28T17:34:36;4.00;99.90
16229;DHT22;8222;51.462;12.630;2023-02-28T17:37:02;3.80;99.90
16229;DHT22;8222;51.462;12.630;2023-02-28T17:39:29;3.70;99.90
16229;DHT22;8222;51.462;12.630;2023-02-28T17:41:56;3.70;99.90
16229;DHT22;8222;51.462;12.630;2023-02-28T17:44:23;3.60;99.90
16229;DHT22;8222;51.462;12.630;2023-02-28T17:46:49;3.60;99.90
16229;DHT22;8222;51.462;12.630;2023-02-28T17:49:18;3.50;99.90
16229;DHT22;8222;51.462;12.630;2023-02-28T17:51:43;3.50;99.90
16229;DHT22;8222;51.462;12.630;2023-02-28T17:54:09;3.50;99.90
16229;DHT22;8222;51.462;12.630;2023-02-28T17:56:35;3.40;99.90
16229;DHT22;8222;51.462;12.630;2023-02-28T17:59:01;3.20;99.90
16229;DHT22;8222;51.462;12.630;2023-02-28T18:01:27;3.20;99.90
16229;DHT22;8222;51.462;12.630;2023-02-28T18:03:54;3.40;99.90
16229;DHT22;8222;51.462;12.630;2023-02-28T18:06:23;3.00;99.90
16229;DHT22;8222;51.462;12.630;2023-02-28T18:08:50;2.90;99.90
16229;DHT22;8222;51.462;12.630;2023-02-28T18:11:19;2.70;99.90
16229;DHT22;8222;51.462;12.630;2023-02-28T18:13:49;2.70;99.90
16229;DHT22;8222;51.462;12.630;2023-02-28T18:16:16;2.80;99.90
16229;DHT22;8222;51.462;12.630;2023-02-28T18:18:42;2.80;99.90
16229;DHT22;8222;51.462;12.630;2023-02-28T18:21:09;2.70;99.90
16229;DHT22;8222;51.462;12.630;2023-02-28T18:23:35;2.70;99.90
16229;DHT22;8222;51.462;12.630;2023-02-28T18:26:06;2.70;99.90
16229;DHT22;8222;51.462;12.630;2023-02-28T18:28:34;2.80;99.90
16229;DHT22;8222;51.462;12.630;2023-02-28T18:31:18;2.70;99.90
16229;DHT22;8222;51.462;12.630;2023-02-28T18:33:48;2.70;99.90
16229;DHT22;8222;51.462;12.630;2023-02-28T18:36:13;2.70;99.90
16229;DHT22;8222;51.462;12.630;2023-02-28T18:38:39;2.60;99.90
16229;DHT22;8222;51.462;12.630;2023-02-28T18:41:08;2.60;99.90
16229;DHT22;8222;51.462;12.630;2023-02-28T18:43:35;2.50;99.90
16229;DHT22;8222;51.462;12.630;2023-02-28T18:46:13;2.40;99.90
16229;DHT22;8222;51.462;12.630;2023-02-28T18:48:39;2.40;99.90
16229;DHT22;8222;51.462;12.630;2023-02-28T18:51:11;2.40;99.90